Latest Weather Observations for Sydney Harbour

IDN60901

Issued at 4:11 pm EDT Friday 16 November 2018 (issued every 10 minutes, with the page automatically refreshed every 10 minutes)

About weather observations | Map of Sydney area stations | Latest observations for Sydney area | Other Formats
Station Details ID: 066196 Name: WEDDING CAKE WEST Lat: -33.84 Lon: 151.26 Height: 6.0 m
Data from the previous 72 hours. | See also: Recent months at Sydney Harbour
Date/Time
EDT
Temp
°C
App
Temp
°C
Dew
Point
°C
Rel
Hum
%
Delta-T
°C
Wind Press
QNH
hPa
Press
MSL
hPa
Rain since
9am
mm
Dir  Spd
km/h
Gust
km/h
Spd
kts
Gust
kts
16/04:00pm 18.8 - - - - S 20 24 11 13 - - -
16/03:30pm 18.9 - - - - S 19 24 10 13 - - -
16/03:00pm 19.0 - - - - SSE 20 24 11 13 - - -
16/02:30pm 18.7 - - - - SSE 20 26 11 14 - - -
16/02:00pm 18.8 - - - - SSE 22 28 12 15 - - -
16/01:30pm 18.7 - - - - S 22 26 12 14 - - -
16/01:00pm 18.7 - - - - S 17 24 9 13 - - -
16/12:30pm 18.5 - - - - SSW 20 33 11 18 - - -
16/12:00pm 18.2 - - - - SSW 20 28 11 15 - - -
16/11:30am 17.8 - - - - SW 20 28 11 15 - - -
16/11:00am 17.2 - - - - SSW 22 28 12 15 - - -
16/10:30am 16.9 - - - - SSW 20 26 11 14 - - -
16/10:00am 16.4 - - - - SW 22 26 12 14 - - -
16/09:30am 16.6 - - - - SSW 22 26 12 14 - - -
16/09:00am 17.0 - - - - SSW 24 30 13 16 - - -
16/08:30am 16.8 - - - - SSW 28 35 15 19 - - -
16/08:00am 17.0 - - - - SSW 30 35 16 19 - - -
16/07:30am 17.2 - - - - SSW 26 32 14 17 - - -
16/07:00am 17.0 - - - - SSW 26 33 14 18 - - -
16/06:30am 17.2 - - - - SSW 28 37 15 20 - - -
16/06:00am 17.4 - - - - SSW 24 35 13 19 - - -
16/05:30am 17.4 - - - - SSW 26 32 14 17 - - -
16/05:00am 17.2 - - - - SW 24 30 13 16 - - -
16/04:30am 17.3 - - - - SW 26 32 14 17 - - -
16/04:00am 17.5 - - - - SSW 20 28 11 15 - - -
16/03:30am 17.8 - - - - SSW 20 28 11 15 - - -
16/03:00am 17.8 - - - - SSW 26 32 14 17 - - -
16/02:30am 17.9 - - - - SSW 28 37 15 20 - - -
16/02:00am 17.7 - - - - SSW 28 37 15 20 - - -
16/01:30am 18.1 - - - - S 28 32 15 17 - - -
16/01:00am 18.1 - - - - S 26 32 14 17 - - -
16/12:30am 18.3 - - - - S 28 35 15 19 - - -
16/12:00am 18.3 - - - - S 24 32 13 17 - - -
 
Date/Time
EDT
Temp
°C
App
Temp
°C
Dew
Point
°C
Rel
Hum
%
Delta-T
°C
Wind Press
QNH
hPa
Press
MSL
hPa
Rain since
9am
mm
Dir  Spd
km/h
Gust
km/h
Spd
kts
Gust
kts
15/11:30pm 17.9 - - - - S 28 35 15 19 - - -
15/11:00pm 18.2 - - - - SSE 19 24 10 13 - - -
15/10:30pm 18.1 - - - - S 22 30 12 16 - - -
15/10:00pm 18.3 - - - - S 33 43 18 23 - - -
15/09:30pm 18.3 - - - - S 26 32 14 17 - - -
15/09:00pm 18.2 - - - - SSE 28 41 15 22 - - -
15/08:30pm 18.1 - - - - S 32 41 17 22 - - -
15/08:07pm 17.8 - - - - S 30 48 16 26 - - -
15/08:00pm 17.7 - - - - SSE 33 44 18 24 - - -
15/07:30pm 17.7 - - - - S 32 44 17 24 - - -
15/07:00pm 17.1 - - - - SSE 32 46 17 25 - - -
15/06:30pm 16.7 - - - - S 35 50 19 27 - - -
15/06:00pm 17.3 - - - - SSE 32 44 17 24 - - -
15/05:30pm 17.2 - - - - SSE 33 43 18 23 - - -
15/05:00pm 17.9 - - - - S 30 43 16 23 - - -
15/04:44pm 18.5 - - - - S 28 46 15 25 - - -
15/04:30pm 18.4 - - - - S 28 39 15 21 - - -
15/04:00pm 18.8 - - - - S 33 44 18 24 - - -
15/03:30pm 18.2 - - - - SSE 33 44 18 24 - - -
15/03:00pm 18.1 - - - - S 32 39 17 21 - - -
15/02:30pm 18.1 - - - - S 39 48 21 26 - - -
15/02:00pm 18.4 - - - - S 35 44 19 24 - - -
15/01:30pm 18.3 - - - - S 33 44 18 24 - - -
15/01:00pm 18.5 - - - - S 35 46 19 25 - - -
15/12:30pm 19.1 - - - - S 39 50 21 27 - - -
15/12:00pm 20.3 - - - - S 35 52 19 28 - - -
15/11:30am 20.4 - - - - S 37 52 20 28 - - -
15/11:00am 20.1 - - - - S 35 44 19 24 - - -
15/10:30am 20.2 - - - - S 35 46 19 25 - - -
15/10:00am 20.5 - - - - S 32 39 17 21 - - -
15/09:30am 20.4 - - - - S 32 41 17 22 - - -
15/09:00am 20.0 - - - - S 30 39 16 21 - - -
15/08:30am 19.5 - - - - SSW 28 35 15 19 - - -
15/08:00am 18.8 - - - - SSW 30 39 16 21 - - -
15/07:30am 18.6 - - - - SSW 24 32 13 17 - - -
15/07:00am 18.8 - - - - SSW 20 26 11 14 - - -
15/06:30am 19.2 - - - - SW 19 22 10 12 - - -
15/06:00am 19.4 - - - - WSW 15 17 8 9 - - -
15/05:30am 19.1 - - - - NNE 6 9 3 5 - - -
15/05:00am 19.5 - - - - NNE 13 15 7 8 - - -
15/04:30am 19.1 - - - - NNE 7 11 4 6 - - -
15/04:00am 19.8 - - - - NNE 7 7 4 4 - - -
15/03:30am 19.9 - - - - NNE 6 9 3 5 - - -
15/03:00am 20.0 - - - - NNE 7 9 4 5 - - -
15/02:30am 20.2 - - - - CALM 0 0 0 0 - - -
15/02:00am 20.1 - - - - CALM 0 6 0 3 - - -
15/01:30am 20.1 - - - - NNE 6 7 3 4 - - -
15/01:00am 20.5 - - - - NNE 9 11 5 6 - - -
15/12:30am 20.2 - - - - CALM 0 0 0 0 - - -
15/12:00am 20.9 - - - - NNE 6 7 3 4 - - -
 
Date/Time
EDT
Temp
°C
App
Temp
°C
Dew
Point
°C
Rel
Hum
%
Delta-T
°C
Wind Press
QNH
hPa
Press
MSL
hPa
Rain since
9am
mm
Dir  Spd
km/h
Gust
km/h
Spd
kts
Gust
kts
14/11:30pm 21.1 - - - - NNE 11 13 6 7 - - -
14/11:00pm 21.2 - - - - NNE 13 17 7 9 - - -
14/10:30pm 20.9 - - - - NNE 15 17 8 9 - - -
14/10:00pm 21.0 - - - - NNE 13 15 7 8 - - -
14/09:30pm 21.2 - - - - NNE 13 15 7 8 - - -
14/09:00pm 21.0 - - - - NNE 11 11 6 6 - - -
14/08:30pm 20.6 - - - - NNE 13 17 7 9 - - -
14/08:00pm 20.3 - - - - NNE 17 20 9 11 - - -
14/07:30pm 20.4 - - - - NNE 15 20 8 11 - - -
14/07:00pm 20.3 - - - - N 15 19 8 10 - - -
14/06:30pm 19.8 - - - - N 26 32 14 17 - - -
14/06:00pm 19.7 - - - - N 22 30 12 16 - - -
14/05:30pm 19.5 - - - - NNE 22 28 12 15 - - -
14/05:00pm 19.5 - - - - NNE 24 30 13 16 - - -
14/04:30pm 19.5 - - - - NNE 17 20 9 11 - - -
14/04:00pm 19.6 - - - - NNE 17 19 9 10 - - -
14/03:30pm 19.5 - - - - NNE 17 20 9 11 - - -
14/03:00pm 19.5 - - - - NE 20 22 11 12 - - -
14/02:30pm 19.7 - - - - NE 15 17 8 9 - - -
14/02:00pm 19.4 - - - - NNE 19 22 10 12 - - -
14/01:30pm 19.5 - - - - NNE 13 17 7 9 - - -
14/01:00pm 19.6 - - - - NNE 7 9 4 5 - - -
14/12:30pm 20.0 - - - - NNE 11 13 6 7 - - -
14/12:00pm 20.0 - - - - CALM 0 0 0 0 - - -
14/11:30am 19.3 - - - - NNE 13 15 7 8 - - -
14/11:00am 19.4 - - - - NNE 11 15 6 8 - - -
14/10:30am 19.5 - - - - NNE 11 13 6 7 - - -
14/10:00am 19.5 - - - - NNE 6 9 3 5 - - -
14/09:30am 19.7 - - - - NNE 9 11 5 6 - - -
14/09:00am 19.6 - - - - NNE 9 11 5 6 - - -
14/08:30am 19.6 - - - - NNE 6 7 3 4 - - -
14/08:00am 19.6 - - - - NNE 7 9 4 5 - - -
14/07:30am 19.4 - - - - NNE 11 13 6 7 - - -
14/07:00am 19.4 - - - - NNE 13 15 7 8 - - -
14/06:30am 19.3 - - - - NNE 15 17 8 9 - - -
14/06:00am 19.3 - - - - NNE 13 15 7 8 - - -
14/05:30am 19.4 - - - - NNE 15 19 8 10 - - -
14/05:00am 19.2 - - - - NNE 17 22 9 12 - - -
14/04:30am 19.3 - - - - NNE 20 26 11 14 - - -
14/04:00am 19.6 - - - - NNE 24 32 13 17 - - -
14/03:30am 19.6 - - - - NNE 24 28 13 15 - - -
14/03:00am 19.4 - - - - NNE 20 24 11 13 - - -
14/02:30am 19.7 - - - - NNE 20 26 11 14 - - -
14/02:00am 19.8 - - - - N 20 26 11 14 - - -
14/01:30am 19.9 - - - - NNE 22 30 12 16 - - -
14/01:00am 19.8 - - - - NNE 24 28 13 15 - - -
14/12:30am 19.8 - - - - NNE 28 35 15 19 - - -
14/12:00am 19.8 - - - - NNE 32 41 17 22 - - -
 
Date/Time
EDT
Temp
°C
App
Temp
°C
Dew
Point
°C
Rel
Hum
%
Delta-T
°C
Wind Press
QNH
hPa
Press
MSL
hPa
Rain since
9am
mm
Dir  Spd
km/h
Gust
km/h
Spd
kts
Gust
kts
13/11:30pm 20.0 - - - - NNE 35 44 19 24 - - -
13/11:00pm 20.2 - - - - NNE 41 48 22 26 - - -
13/10:30pm 20.3 - - - - NNE 46 57 25 31 - - -
13/10:00pm 20.4 - - - - NNE 44 54 24 29 - - -
13/09:30pm 20.4 - - - - NNE 44 57 24 31 - - -
13/09:00pm 20.4 - - - - NNE 41 48 22 26 - - -
13/08:30pm 20.6 - - - - NNE 41 54 22 29 - - -
13/08:00pm 20.6 - - - - NNE 46 56 25 30 - - -
13/07:30pm 20.5 - - - - NNE 41 48 22 26 - - -
13/07:00pm 20.6 - - - - NNE 43 54 23 29 - - -
13/06:30pm 20.6 - - - - NNE 41 52 22 28 - - -
13/06:00pm 20.7 - - - - NNE 41 50 22 27 - - -
13/05:30pm 20.7 - - - - NNE 41 50 22 27 - - -
13/05:00pm 20.9 - - - - NNE 41 50 22 27 - - -
13/04:30pm 20.9 - - - - NNE 43 48 23 26 - - -

Latest Capital City Observations: Canberra | Sydney | Melbourne | Brisbane | Adelaide | Perth | Hobart | Darwin

Other Formats:

Comma delimited format used in spreadsheet applications
http://www.bom.gov.au/fwo/IDN60901/IDN60901.95766.axf

JavaScript Object Notation format (JSON) in row-major order
http://www.bom.gov.au/fwo/IDN60901/IDN60901.95766.json